sensor_id;sensor_type;location;lat;lon;timestamp;P1;durP1;ratioP1;P2;durP2;ratioP2
27895;SDS011;15241;48.374;10.876;2023-07-30T00:01:11;2.83;;;1.72;;
27895;SDS011;15241;48.374;10.876;2023-07-30T00:06:29;2.05;;;1.85;;
27895;SDS011;15241;48.374;10.876;2023-07-30T00:11:46;2.25;;;2.05;;
27895;SDS011;15241;48.374;10.876;2023-07-30T00:17:04;2.50;;;2.02;;
27895;SDS011;15241;48.374;10.876;2023-07-30T00:22:22;1.98;;;1.65;;
27895;SDS011;15241;48.374;10.876;2023-07-30T00:27:39;2.40;;;2.20;;
27895;SDS011;15241;48.374;10.876;2023-07-30T00:32:57;3.60;;;2.00;;
27895;SDS011;15241;48.374;10.876;2023-07-30T00:38:14;4.40;;;2.12;;
27895;SDS011;15241;48.374;10.876;2023-07-30T00:43:32;2.30;;;2.10;;
27895;SDS011;15241;48.374;10.876;2023-07-30T00:48:49;3.35;;;2.10;;
27895;SDS011;15241;48.374;10.876;2023-07-30T00:54:07;3.17;;;2.15;;
27895;SDS011;15241;48.374;10.876;2023-07-30T00:59:26;3.83;;;2.10;;
27895;SDS011;15241;48.374;10.876;2023-07-30T01:04:44;2.00;;;1.80;;
27895;SDS011;15241;48.374;10.876;2023-07-30T01:10:01;2.27;;;2.05;;
27895;SDS011;15241;48.374;10.876;2023-07-30T01:15:20;3.45;;;1.90;;
27895;SDS011;15241;48.374;10.876;2023-07-30T01:20:37;1.87;;;1.67;;
27895;SDS011;15241;48.374;10.876;2023-07-30T01:25:57;1.92;;;1.55;;
27895;SDS011;15241;48.374;10.876;2023-07-30T01:31:16;3.05;;;1.70;;
27895;SDS011;15241;48.374;10.876;2023-07-30T01:36:36;2.65;;;1.65;;
27895;SDS011;15241;48.374;10.876;2023-07-30T01:41:54;2.27;;;1.85;;
27895;SDS011;15241;48.374;10.876;2023-07-30T01:47:12;3.65;;;1.95;;
27895;SDS011;15241;48.374;10.876;2023-07-30T01:52:29;2.08;;;1.87;;
27895;SDS011;15241;48.374;10.876;2023-07-30T01:57:47;2.75;;;1.95;;
27895;SDS011;15241;48.374;10.876;2023-07-30T02:03:04;2.30;;;2.10;;
27895;SDS011;15241;48.374;10.876;2023-07-30T02:08:22;2.95;;;1.95;;
27895;SDS011;15241;48.374;10.876;2023-07-30T02:13:39;1.80;;;1.70;;
27895;SDS011;15241;48.374;10.876;2023-07-30T02:18:57;1.92;;;1.72;;
27895;SDS011;15241;48.374;10.876;2023-07-30T02:24:14;2.72;;;1.85;;
27895;SDS011;15241;48.374;10.876;2023-07-30T02:29:32;2.62;;;2.22;;
27895;SDS011;15241;48.374;10.876;2023-07-30T02:34:50;1.98;;;1.70;;
27895;SDS011;15241;48.374;10.876;2023-07-30T02:40:09;3.40;;;2.12;;
27895;SDS011;15241;48.374;10.876;2023-07-30T02:45:27;2.58;;;2.08;;
27895;SDS011;15241;48.374;10.876;2023-07-30T02:50:45;2.55;;;2.17;;
27895;SDS011;15241;48.374;10.876;2023-07-30T02:56:03;2.00;;;1.80;;
27895;SDS011;15241;48.374;10.876;2023-07-30T03:01:20;3.37;;;2.40;;
27895;SDS011;15241;48.374;10.876;2023-07-30T03:06:37;2.12;;;1.80;;
27895;SDS011;15241;48.374;10.876;2023-07-30T03:11:55;4.42;;;2.27;;
27895;SDS011;15241;48.374;10.876;2023-07-30T03:17:13;4.05;;;2.30;;
27895;SDS011;15241;48.374;10.876;2023-07-30T03:22:30;2.42;;;2.22;;
27895;SDS011;15241;48.374;10.876;2023-07-30T03:27:48;3.40;;;2.80;;
27895;SDS011;15241;48.374;10.876;2023-07-30T03:33:06;2.70;;;2.30;;
27895;SDS011;15241;48.374;10.876;2023-07-30T03:38:23;2.90;;;2.10;;
27895;SDS011;15241;48.374;10.876;2023-07-30T03:43:41;3.85;;;2.30;;
27895;SDS011;15241;48.374;10.876;2023-07-30T03:48:58;2.47;;;2.27;;
27895;SDS011;15241;48.374;10.876;2023-07-30T03:54:15;2.90;;;2.45;;
27895;SDS011;15241;48.374;10.876;2023-07-30T03:59:33;6.65;;;2.83;;
27895;SDS011;15241;48.374;10.876;2023-07-30T04:04:50;4.83;;;2.33;;
27895;SDS011;15241;48.374;10.876;2023-07-30T04:10:08;3.50;;;2.65;;
27895;SDS011;15241;48.374;10.876;2023-07-30T04:15:26;5.50;;;3.00;;
27895;SDS011;15241;48.374;10.876;2023-07-30T04:20:44;4.05;;;2.25;;
27895;SDS011;15241;48.374;10.876;2023-07-30T04:26:01;4.10;;;2.52;;
27895;SDS011;15241;48.374;10.876;2023-07-30T04:31:18;3.55;;;2.60;;
27895;SDS011;15241;48.374;10.876;2023-07-30T04:36:35;3.17;;;2.35;;
27895;SDS011;15241;48.374;10.876;2023-07-30T04:41:53;2.58;;;2.25;;
27895;SDS011;15241;48.374;10.876;2023-07-30T04:47:10;3.20;;;2.12;;
27895;SDS011;15241;48.374;10.876;2023-07-30T04:52:28;3.92;;;2.50;;
27895;SDS011;15241;48.374;10.876;2023-07-30T04:57:45;3.22;;;2.35;;
27895;SDS011;15241;48.374;10.876;2023-07-30T05:03:03;6.67;;;2.22;;
27895;SDS011;15241;48.374;10.876;2023-07-30T05:08:20;2.75;;;2.30;;
27895;SDS011;15241;48.374;10.876;2023-07-30T05:13:38;3.25;;;2.40;;
27895;SDS011;15241;48.374;10.876;2023-07-30T05:18:56;3.90;;;2.22;;
27895;SDS011;15241;48.374;10.876;2023-07-30T05:24:13;3.08;;;2.15;;
27895;SDS011;15241;48.374;10.876;2023-07-30T05:29:30;2.92;;;1.87;;
27895;SDS011;15241;48.374;10.876;2023-07-30T05:34:48;2.60;;;2.05;;
27895;SDS011;15241;48.374;10.876;2023-07-30T05:40:07;3.42;;;1.80;;
27895;SDS011;15241;48.374;10.876;2023-07-30T05:45:24;4.45;;;2.30;;
27895;SDS011;15241;48.374;10.876;2023-07-30T05:50:42;1.87;;;1.75;;
27895;SDS011;15241;48.374;10.876;2023-07-30T05:55:59;3.15;;;1.87;;
27895;SDS011;15241;48.374;10.876;2023-07-30T06:01:16;2.47;;;2.27;;
27895;SDS011;15241;48.374;10.876;2023-07-30T06:06:34;3.67;;;2.12;;
27895;SDS011;15241;48.374;10.876;2023-07-30T06:11:52;2.27;;;1.95;;
27895;SDS011;15241;48.374;10.876;2023-07-30T06:17:09;2.45;;;1.92;;
27895;SDS011;15241;48.374;10.876;2023-07-30T06:22:27;4.90;;;2.20;;
27895;SDS011;15241;48.374;10.876;2023-07-30T06:27:45;3.35;;;2.00;;
27895;SDS011;15241;48.374;10.876;2023-07-30T06:33:02;2.20;;;1.98;;
27895;SDS011;15241;48.374;10.876;2023-07-30T06:38:20;3.40;;;1.95;;
27895;SDS011;15241;48.374;10.876;2023-07-30T06:43:37;2.58;;;2.02;;
27895;SDS011;15241;48.374;10.876;2023-07-30T06:48:55;2.15;;;1.90;;
27895;SDS011;15241;48.374;10.876;2023-07-30T06:54:13;2.72;;;2.00;;
27895;SDS011;15241;48.374;10.876;2023-07-30T06:59:30;2.27;;;1.90;;
27895;SDS011;15241;48.374;10.876;2023-07-30T07:04:49;4.83;;;2.20;;
27895;SDS011;15241;48.374;10.876;2023-07-30T07:10:08;2.87;;;2.30;;
27895;SDS011;15241;48.374;10.876;2023-07-30T07:15:25;5.55;;;2.10;;
27895;SDS011;15241;48.374;10.876;2023-07-30T07:20:43;4.80;;;2.10;;
27895;SDS011;15241;48.374;10.876;2023-07-30T07:26:00;2.40;;;1.85;;
27895;SDS011;15241;48.374;10.876;2023-07-30T07:31:18;2.95;;;1.80;;
27895;SDS011;15241;48.374;10.876;2023-07-30T07:36:37;2.00;;;1.60;;
27895;SDS011;15241;48.374;10.876;2023-07-30T07:41:54;2.15;;;1.60;;
27895;SDS011;15241;48.374;10.876;2023-07-30T07:47:12;2.75;;;1.80;;
27895;SDS011;15241;48.374;10.876;2023-07-30T07:52:29;1.60;;;1.50;;
27895;SDS011;15241;48.374;10.876;2023-07-30T07:57:47;2.33;;;2.12;;
27895;SDS011;15241;48.374;10.876;2023-07-30T08:03:05;2.55;;;2.30;;
27895;SDS011;15241;48.374;10.876;2023-07-30T08:08:23;2.20;;;2.00;;
27895;SDS011;15241;48.374;10.876;2023-07-30T08:13:42;3.00;;;1.80;;
27895;SDS011;15241;48.374;10.876;2023-07-30T08:18:59;2.58;;;1.98;;
27895;SDS011;15241;48.374;10.876;2023-07-30T08:24:17;3.22;;;1.82;;
27895;SDS011;15241;48.374;10.876;2023-07-30T08:29:35;2.80;;;1.50;;
27895;SDS011;15241;48.374;10.876;2023-07-30T08:34:52;2.47;;;1.52;;
27895;SDS011;15241;48.374;10.876;2023-07-30T08:40:11;2.67;;;1.62;;
27895;SDS011;15241;48.374;10.876;2023-07-30T08:45:28;2.87;;;1.82;;
27895;SDS011;15241;48.374;10.876;2023-07-30T08:50:46;2.85;;;1.90;;
27895;SDS011;15241;48.374;10.876;2023-07-30T08:56:05;1.95;;;1.57;;
27895;SDS011;15241;48.374;10.876;2023-07-30T09:01:23;1.72;;;1.50;;
27895;SDS011;15241;48.374;10.876;2023-07-30T09:06:44;1.72;;;1.60;;
27895;SDS011;15241;48.374;10.876;2023-07-30T09:12:06;1.60;;;1.47;;
27895;SDS011;15241;48.374;10.876;2023-07-30T09:17:29;1.70;;;1.35;;
27895;SDS011;15241;48.374;10.876;2023-07-30T09:22:47;1.65;;;1.40;;
27895;SDS011;15241;48.374;10.876;2023-07-30T09:28:05;1.47;;;1.30;;
27895;SDS011;15241;48.374;10.876;2023-07-30T09:33:23;2.22;;;1.82;;
27895;SDS011;15241;48.374;10.876;2023-07-30T09:38:41;1.85;;;1.40;;
27895;SDS011;15241;48.374;10.876;2023-07-30T09:43:59;1.40;;;1.30;;
27895;SDS011;15241;48.374;10.876;2023-07-30T09:49:17;1.30;;;1.20;;
27895;SDS011;15241;48.374;10.876;2023-07-30T09:54:34;1.57;;;1.47;;
27895;SDS011;15241;48.374;10.876;2023-07-30T09:59:53;2.12;;;1.27;;
27895;SDS011;15241;48.374;10.876;2023-07-30T10:05:12;1.40;;;1.30;;
27895;SDS011;15241;48.374;10.876;2023-07-30T10:10:31;3.30;;;1.35;;
27895;SDS011;15241;48.374;10.876;2023-07-30T10:15:49;1.85;;;1.35;;
27895;SDS011;15241;48.374;10.876;2023-07-30T10:21:07;2.33;;;1.25;;
27895;SDS011;15241;48.374;10.876;2023-07-30T10:26:27;2.40;;;1.80;;
27895;SDS011;15241;48.374;10.876;2023-07-30T10:31:48;1.82;;;1.50;;
27895;SDS011;15241;48.374;10.876;2023-07-30T10:37:07;1.67;;;1.20;;
27895;SDS011;15241;48.374;10.876;2023-07-30T10:42:33;1.77;;;1.50;;
27895;SDS011;15241;48.374;10.876;2023-07-30T10:47:50;3.35;;;1.30;;
27895;SDS011;15241;48.374;10.876;2023-07-30T10:53:08;1.42;;;1.32;;
27895;SDS011;15241;48.374;10.876;2023-07-30T10:58:25;1.77;;;1.35;;
27895;SDS011;15241;48.374;10.876;2023-07-30T11:03:43;1.95;;;1.50;;
27895;SDS011;15241;48.374;10.876;2023-07-30T11:09:02;2.33;;;1.20;;
27895;SDS011;15241;48.374;10.876;2023-07-30T11:14:20;1.82;;;1.45;;
27895;SDS011;15241;48.374;10.876;2023-07-30T11:19:42;1.90;;;1.40;;
27895;SDS011;15241;48.374;10.876;2023-07-30T11:24:58;2.20;;;1.50;;
27895;SDS011;15241;48.374;10.876;2023-07-30T11:30:15;1.60;;;1.27;;
27895;SDS011;15241;48.374;10.876;2023-07-30T11:35:33;1.70;;;1.30;;
27895;SDS011;15241;48.374;10.876;2023-07-30T11:40:51;2.15;;;1.10;;
27895;SDS011;15241;48.374;10.876;2023-07-30T11:46:11;2.40;;;1.75;;
27895;SDS011;15241;48.374;10.876;2023-07-30T11:51:30;1.98;;;1.50;;
27895;SDS011;15241;48.374;10.876;2023-07-30T11:56:53;1.75;;;1.65;;
27895;SDS011;15241;48.374;10.876;2023-07-30T12:02:17;3.12;;;1.45;;
27895;SDS011;15241;48.374;10.876;2023-07-30T12:07:34;1.50;;;1.40;;
27895;SDS011;15241;48.374;10.876;2023-07-30T12:12:52;2.10;;;1.22;;
27895;SDS011;15241;48.374;10.876;2023-07-30T12:18:09;2.12;;;1.60;;
27895;SDS011;15241;48.374;10.876;2023-07-30T12:23:27;1.90;;;1.10;;
27895;SDS011;15241;48.374;10.876;2023-07-30T12:28:44;1.82;;;1.30;;
27895;SDS011;15241;48.374;10.876;2023-07-30T12:34:02;1.75;;;1.60;;
27895;SDS011;15241;48.374;10.876;2023-07-30T12:39:19;1.52;;;1.25;;
27895;SDS011;15241;48.374;10.876;2023-07-30T12:44:37;1.50;;;1.20;;
27895;SDS011;15241;48.374;10.876;2023-07-30T12:49:54;3.15;;;1.90;;
27895;SDS011;15241;48.374;10.876;2023-07-30T12:55:12;2.10;;;1.30;;
27895;SDS011;15241;48.374;10.876;2023-07-30T13:00:34;1.12;;;1.02;;
27895;SDS011;15241;48.374;10.876;2023-07-30T13:05:56;1.50;;;1.40;;
27895;SDS011;15241;48.374;10.876;2023-07-30T13:11:14;1.72;;;1.40;;
27895;SDS011;15241;48.374;10.876;2023-07-30T13:16:32;2.80;;;1.50;;
27895;SDS011;15241;48.374;10.876;2023-07-30T13:21:49;1.77;;;1.37;;
27895;SDS011;15241;48.374;10.876;2023-07-30T13:27:07;1.70;;;1.50;;
27895;SDS011;15241;48.374;10.876;2023-07-30T13:32:24;2.55;;;1.37;;
27895;SDS011;15241;48.374;10.876;2023-07-30T13:37:42;4.50;;;1.60;;
27895;SDS011;15241;48.374;10.876;2023-07-30T13:42:59;1.90;;;1.20;;
27895;SDS011;15241;48.374;10.876;2023-07-30T13:48:17;2.65;;;1.52;;
27895;SDS011;15241;48.374;10.876;2023-07-30T13:53:35;1.62;;;1.20;;
27895;SDS011;15241;48.374;10.876;2023-07-30T13:58:52;2.85;;;1.57;;
27895;SDS011;15241;48.374;10.876;2023-07-30T14:04:09;3.47;;;1.40;;
27895;SDS011;15241;48.374;10.876;2023-07-30T14:09:27;1.95;;;1.50;;
27895;SDS011;15241;48.374;10.876;2023-07-30T14:14:45;1.60;;;1.50;;
27895;SDS011;15241;48.374;10.876;2023-07-30T14:20:03;4.50;;;1.90;;
27895;SDS011;15241;48.374;10.876;2023-07-30T14:25:23;1.80;;;1.60;;
27895;SDS011;15241;48.374;10.876;2023-07-30T14:30:40;1.70;;;1.32;;
27895;SDS011;15241;48.374;10.876;2023-07-30T14:35:58;1.98;;;1.47;;
27895;SDS011;15241;48.374;10.876;2023-07-30T14:41:15;1.82;;;1.67;;
27895;SDS011;15241;48.374;10.876;2023-07-30T14:46:33;1.75;;;1.62;;
27895;SDS011;15241;48.374;10.876;2023-07-30T14:51:50;1.70;;;1.45;;
27895;SDS011;15241;48.374;10.876;2023-07-30T14:57:08;2.72;;;1.82;;
27895;SDS011;15241;48.374;10.876;2023-07-30T15:02:27;1.55;;;1.45;;
27895;SDS011;15241;48.374;10.876;2023-07-30T15:07:45;3.00;;;1.70;;
27895;SDS011;15241;48.374;10.876;2023-07-30T15:13:02;2.12;;;1.50;;
27895;SDS011;15241;48.374;10.876;2023-07-30T15:18:20;2.05;;;1.55;;
27895;SDS011;15241;48.374;10.876;2023-07-30T15:23:37;2.10;;;1.60;;
27895;SDS011;15241;48.374;10.876;2023-07-30T15:28:54;2.22;;;2.00;;
27895;SDS011;15241;48.374;10.876;2023-07-30T15:34:12;2.80;;;1.72;;
27895;SDS011;15241;48.374;10.876;2023-07-30T15:39:30;1.90;;;1.70;;
27895;SDS011;15241;48.374;10.876;2023-07-30T15:44:47;2.60;;;1.90;;
27895;SDS011;15241;48.374;10.876;2023-07-30T15:55:33;2.42;;;1.77;;
27895;SDS011;15241;48.374;10.876;2023-07-30T16:00:51;3.42;;;1.95;;
27895;SDS011;15241;48.374;10.876;2023-07-30T16:06:08;4.20;;;1.65;;
27895;SDS011;15241;48.374;10.876;2023-07-30T16:11:26;3.27;;;1.87;;
27895;SDS011;15241;48.374;10.876;2023-07-30T16:16:44;2.27;;;2.00;;
27895;SDS011;15241;48.374;10.876;2023-07-30T16:22:02;2.85;;;1.95;;
27895;SDS011;15241;48.374;10.876;2023-07-30T16:27:19;2.72;;;2.02;;
27895;SDS011;15241;48.374;10.876;2023-07-30T16:32:37;6.28;;;1.77;;
27895;SDS011;15241;48.374;10.876;2023-07-30T16:37:54;3.52;;;2.10;;
27895;SDS011;15241;48.374;10.876;2023-07-30T16:43:12;3.05;;;1.77;;
27895;SDS011;15241;48.374;10.876;2023-07-30T16:48:29;3.47;;;2.40;;
27895;SDS011;15241;48.374;10.876;2023-07-30T16:53:47;2.02;;;1.70;;
27895;SDS011;15241;48.374;10.876;2023-07-30T16:59:05;3.00;;;2.17;;
27895;SDS011;15241;48.374;10.876;2023-07-30T17:04:22;4.25;;;3.37;;
27895;SDS011;15241;48.374;10.876;2023-07-30T17:09:40;5.60;;;3.52;;
27895;SDS011;15241;48.374;10.876;2023-07-30T17:14:57;2.75;;;1.85;;
27895;SDS011;15241;48.374;10.876;2023-07-30T17:20:15;3.75;;;2.30;;
27895;SDS011;15241;48.374;10.876;2023-07-30T17:25:34;6.00;;;3.05;;
27895;SDS011;15241;48.374;10.876;2023-07-30T17:30:51;5.08;;;2.83;;
27895;SDS011;15241;48.374;10.876;2023-07-30T17:36:09;4.20;;;2.55;;
27895;SDS011;15241;48.374;10.876;2023-07-30T17:41:26;9.08;;;4.20;;
27895;SDS011;15241;48.374;10.876;2023-07-30T17:46:44;3.75;;;2.58;;
27895;SDS011;15241;48.374;10.876;2023-07-30T17:52:01;3.15;;;1.80;;
27895;SDS011;15241;48.374;10.876;2023-07-30T17:57:19;3.87;;;1.77;;
27895;SDS011;15241;48.374;10.876;2023-07-30T18:02:37;3.42;;;1.62;;
27895;SDS011;15241;48.374;10.876;2023-07-30T18:07:54;2.22;;;1.80;;
27895;SDS011;15241;48.374;10.876;2023-07-30T18:13:12;2.75;;;1.67;;
27895;SDS011;15241;48.374;10.876;2023-07-30T18:18:30;3.52;;;2.12;;
27895;SDS011;15241;48.374;10.876;2023-07-30T18:23:48;1.70;;;1.40;;
27895;SDS011;15241;48.374;10.876;2023-07-30T18:29:05;3.83;;;2.05;;
27895;SDS011;15241;48.374;10.876;2023-07-30T18:34:23;4.55;;;1.75;;
27895;SDS011;15241;48.374;10.876;2023-07-30T18:39:40;2.98;;;1.85;;
27895;SDS011;15241;48.374;10.876;2023-07-30T18:44:58;5.40;;;2.05;;
27895;SDS011;15241;48.374;10.876;2023-07-30T18:50:16;3.25;;;1.70;;
27895;SDS011;15241;48.374;10.876;2023-07-30T18:55:33;4.00;;;1.50;;
27895;SDS011;15241;48.374;10.876;2023-07-30T19:00:51;2.15;;;1.60;;
27895;SDS011;15241;48.374;10.876;2023-07-30T19:06:08;6.40;;;1.80;;
27895;SDS011;15241;48.374;10.876;2023-07-30T19:11:25;2.85;;;1.62;;
27895;SDS011;15241;48.374;10.876;2023-07-30T19:16:43;3.55;;;1.50;;
27895;SDS011;15241;48.374;10.876;2023-07-30T19:22:00;5.17;;;1.67;;
27895;SDS011;15241;48.374;10.876;2023-07-30T19:27:17;3.83;;;1.60;;
27895;SDS011;15241;48.374;10.876;2023-07-30T19:32:36;3.60;;;1.60;;
27895;SDS011;15241;48.374;10.876;2023-07-30T19:37:53;3.47;;;2.02;;
27895;SDS011;15241;48.374;10.876;2023-07-30T19:43:11;3.42;;;2.00;;
27895;SDS011;15241;48.374;10.876;2023-07-30T19:48:28;4.08;;;1.90;;
27895;SDS011;15241;48.374;10.876;2023-07-30T19:53:46;5.50;;;2.08;;
27895;SDS011;15241;48.374;10.876;2023-07-30T19:59:03;4.35;;;1.72;;
27895;SDS011;15241;48.374;10.876;2023-07-30T20:04:21;3.85;;;1.60;;
27895;SDS011;15241;48.374;10.876;2023-07-30T20:09:38;2.80;;;1.60;;
27895;SDS011;15241;48.374;10.876;2023-07-30T20:14:56;3.50;;;1.50;;
27895;SDS011;15241;48.374;10.876;2023-07-30T20:20:14;3.75;;;1.80;;
27895;SDS011;15241;48.374;10.876;2023-07-30T20:25:32;2.95;;;1.57;;
27895;SDS011;15241;48.374;10.876;2023-07-30T20:30:49;5.50;;;1.80;;
27895;SDS011;15241;48.374;10.876;2023-07-30T20:36:07;3.05;;;1.82;;
27895;SDS011;15241;48.374;10.876;2023-07-30T20:41:25;2.87;;;1.47;;
27895;SDS011;15241;48.374;10.876;2023-07-30T20:46:42;6.40;;;1.77;;
27895;SDS011;15241;48.374;10.876;2023-07-30T20:52:00;4.50;;;1.87;;
27895;SDS011;15241;48.374;10.876;2023-07-30T20:57:17;6.00;;;2.02;;
27895;SDS011;15241;48.374;10.876;2023-07-30T21:02:35;5.33;;;2.08;;
27895;SDS011;15241;48.374;10.876;2023-07-30T21:07:52;5.28;;;2.12;;
27895;SDS011;15241;48.374;10.876;2023-07-30T21:13:10;4.53;;;1.87;;
27895;SDS011;15241;48.374;10.876;2023-07-30T21:18:28;4.62;;;1.42;;
27895;SDS011;15241;48.374;10.876;2023-07-30T21:23:45;3.55;;;1.40;;
27895;SDS011;15241;48.374;10.876;2023-07-30T21:29:03;5.37;;;1.75;;
27895;SDS011;15241;48.374;10.876;2023-07-30T21:34:23;5.37;;;1.95;;
27895;SDS011;15241;48.374;10.876;2023-07-30T21:39:41;5.95;;;1.92;;
27895;SDS011;15241;48.374;10.876;2023-07-30T21:44:58;6.17;;;1.60;;
27895;SDS011;15241;48.374;10.876;2023-07-30T21:50:16;4.03;;;2.17;;
27895;SDS011;15241;48.374;10.876;2023-07-30T21:55:34;4.28;;;1.80;;
27895;SDS011;15241;48.374;10.876;2023-07-30T22:00:52;2.75;;;1.57;;
27895;SDS011;15241;48.374;10.876;2023-07-30T22:06:10;5.05;;;1.85;;
27895;SDS011;15241;48.374;10.876;2023-07-30T22:11:28;5.33;;;1.75;;
27895;SDS011;15241;48.374;10.876;2023-07-30T22:16:46;4.33;;;1.75;;
27895;SDS011;15241;48.374;10.876;2023-07-30T22:22:05;3.95;;;1.62;;
27895;SDS011;15241;48.374;10.876;2023-07-30T22:27:22;3.92;;;1.72;;
27895;SDS011;15241;48.374;10.876;2023-07-30T22:32:40;3.12;;;1.67;;
27895;SDS011;15241;48.374;10.876;2023-07-30T22:37:58;5.10;;;1.85;;
27895;SDS011;15241;48.374;10.876;2023-07-30T22:43:16;3.02;;;1.72;;
27895;SDS011;15241;48.374;10.876;2023-07-30T22:48:33;3.67;;;1.62;;
27895;SDS011;15241;48.374;10.876;2023-07-30T22:53:51;3.50;;;1.82;;
27895;SDS011;15241;48.374;10.876;2023-07-30T22:59:09;3.50;;;1.92;;
27895;SDS011;15241;48.374;10.876;2023-07-30T23:04:26;3.70;;;2.02;;
27895;SDS011;15241;48.374;10.876;2023-07-30T23:09:44;5.55;;;2.17;;
27895;SDS011;15241;48.374;10.876;2023-07-30T23:15:01;3.98;;;1.85;;
27895;SDS011;15241;48.374;10.876;2023-07-30T23:20:20;4.20;;;2.27;;
27895;SDS011;15241;48.374;10.876;2023-07-30T23:25:37;5.58;;;1.60;;
27895;SDS011;15241;48.374;10.876;2023-07-30T23:30:55;2.52;;;1.77;;
27895;SDS011;15241;48.374;10.876;2023-07-30T23:36:13;3.15;;;2.27;;
27895;SDS011;15241;48.374;10.876;2023-07-30T23:41:31;7.25;;;2.05;;
27895;SDS011;15241;48.374;10.876;2023-07-30T23:46:49;5.60;;;1.90;;
27895;SDS011;15241;48.374;10.876;2023-07-30T23:52:07;3.75;;;1.98;;
27895;SDS011;15241;48.374;10.876;2023-07-30T23:57:25;7.10;;;1.92;;
